createdAt,value
2022-07-31T00:00:00.091Z,24
2022-07-31T00:01:00.083Z,20
2022-07-31T00:02:00.068Z,20
2022-07-31T00:03:00.081Z,20
2022-07-31T00:04:00.048Z,20
2022-07-31T00:05:00.033Z,20
2022-07-31T00:06:00.026Z,20
2022-07-31T00:07:00.020Z,20
2022-07-31T00:08:00.001Z,20
2022-07-31T00:09:00.000Z,20
2022-07-31T00:09:59.981Z,20
2022-07-31T00:10:59.970Z,20
2022-07-31T00:11:59.965Z,20
2022-07-31T00:12:59.965Z,20
2022-07-31T00:13:59.957Z,20
2022-07-31T00:15:00.011Z,20
2022-07-31T00:15:59.917Z,20
2022-07-31T00:16:59.904Z,20
2022-07-31T00:17:59.908Z,20
2022-07-31T00:18:59.902Z,20
2022-07-31T00:20:00.434Z,20
2022-07-31T00:20:59.862Z,20
2022-07-31T00:21:59.881Z,20
2022-07-31T00:22:59.845Z,20
2022-07-31T00:23:59.829Z,20
2022-07-31T00:24:59.829Z,20
2022-07-31T00:25:59.813Z,20
2022-07-31T00:26:59.802Z,20
2022-07-31T00:27:59.796Z,20
2022-07-31T00:28:59.774Z,20
2022-07-31T00:29:59.772Z,20
2022-07-31T00:30:59.750Z,20
2022-07-31T00:31:59.753Z,20
2022-07-31T00:32:59.733Z,20
2022-07-31T00:33:59.721Z,20
2022-07-31T00:34:59.711Z,20
2022-07-31T00:35:59.709Z,20
2022-07-31T00:36:59.691Z,20
2022-07-31T00:37:59.677Z,20
2022-07-31T00:38:59.673Z,20
2022-07-31T00:39:59.683Z,20
2022-07-31T00:40:59.653Z,20
2022-07-31T00:41:59.638Z,20
2022-07-31T00:42:59.630Z,20
2022-07-31T00:43:59.649Z,20
2022-07-31T00:44:59.600Z,20
2022-07-31T00:45:59.594Z,20
2022-07-31T00:46:59.589Z,20
2022-07-31T00:47:59.578Z,20
2022-07-31T00:48:59.559Z,20
2022-07-31T00:49:59.557Z,20
2022-07-31T00:50:59.577Z,20
2022-07-31T00:51:59.536Z,20
2022-07-31T00:52:59.525Z,20
2022-07-31T00:53:59.523Z,20
2022-07-31T00:54:59.503Z,20
2022-07-31T00:55:59.481Z,20
2022-07-31T00:56:59.477Z,20
2022-07-31T00:57:59.466Z,20
2022-07-31T00:58:59.467Z,20
2022-07-31T00:59:59.456Z,20
2022-07-31T01:00:59.431Z,20
2022-07-31T01:01:59.435Z,20
2022-07-31T01:02:59.413Z,20
2022-07-31T01:03:59.398Z,20
2022-07-31T01:04:59.389Z,20
2022-07-31T01:05:59.397Z,20
2022-07-31T01:06:59.403Z,20
2022-07-31T01:07:59.356Z,20
2022-07-31T01:08:59.372Z,20
2022-07-31T01:09:59.339Z,20
2022-07-31T01:10:59.325Z,20
2022-07-31T01:11:59.316Z,20
2022-07-31T01:12:59.304Z,20
2022-07-31T01:13:59.302Z,20
2022-07-31T01:14:59.282Z,20
2022-07-31T01:15:59.268Z,20
2022-07-31T01:16:59.258Z,20
2022-07-31T01:17:59.272Z,20
2022-07-31T01:18:59.236Z,20
2022-07-31T01:19:59.227Z,20
2022-07-31T01:20:59.217Z,20
2022-07-31T01:21:59.209Z,20
2022-07-31T01:22:59.197Z,20
2022-07-31T01:23:59.198Z,20
2022-07-31T01:24:59.172Z,20
2022-07-31T01:25:59.162Z,20
2022-07-31T01:26:59.150Z,20
2022-07-31T01:27:59.140Z,20
2022-07-31T01:28:59.129Z,20
2022-07-31T01:29:59.118Z,20
2022-07-31T01:30:59.114Z,20
2022-07-31T01:31:59.112Z,20
2022-07-31T01:32:59.086Z,20
2022-07-31T01:33:59.090Z,20
2022-07-31T01:34:59.074Z,20
2022-07-31T01:35:59.054Z,20
2022-07-31T01:36:59.047Z,20
2022-07-31T01:37:59.038Z,20
2022-07-31T01:38:59.021Z,20
2022-07-31T01:39:59.012Z,20
2022-07-31T01:40:59.010Z,20
2022-07-31T01:41:58.988Z,20
2022-07-31T01:42:58.988Z,20
2022-07-31T01:43:58.976Z,20
2022-07-31T01:44:58.956Z,20
2022-07-31T01:45:58.956Z,20
2022-07-31T01:46:58.940Z,20
2022-07-31T01:47:58.924Z,20
2022-07-31T01:48:58.918Z,20
2022-07-31T01:49:58.919Z,20
2022-07-31T01:50:58.893Z,20
2022-07-31T01:51:58.885Z,20
2022-07-31T01:52:58.868Z,20
2022-07-31T01:53:58.910Z,20
2022-07-31T01:54:58.876Z,20
2022-07-31T01:55:58.859Z,20
2022-07-31T01:56:58.829Z,20
2022-07-31T01:57:58.817Z,20
2022-07-31T01:58:58.802Z,20
2022-07-31T01:59:58.798Z,20
2022-07-31T02:00:58.782Z,20
2022-07-31T02:01:58.781Z,20
2022-07-31T02:02:58.763Z,20
2022-07-31T02:03:58.767Z,20
2022-07-31T02:04:58.750Z,20
2022-07-31T02:05:58.725Z,20
2022-07-31T02:06:58.738Z,20
2022-07-31T02:07:58.702Z,20
2022-07-31T02:08:58.697Z,20
2022-07-31T02:09:59.379Z,20
2022-07-31T02:10:58.677Z,20
2022-07-31T02:11:58.665Z,20
2022-07-31T02:12:58.654Z,20
2022-07-31T02:13:58.641Z,20
2022-07-31T02:14:58.631Z,20
2022-07-31T02:15:58.638Z,20
2022-07-31T02:16:58.611Z,20
2022-07-31T02:17:58.601Z,20
2022-07-31T02:18:58.590Z,20
2022-07-31T02:19:58.588Z,20
2022-07-31T02:20:59.559Z,20
2022-07-31T02:21:58.559Z,20
2022-07-31T02:22:58.555Z,20
2022-07-31T02:23:58.548Z,20
2022-07-31T02:24:58.525Z,20
2022-07-31T02:25:58.509Z,20
2022-07-31T02:26:58.509Z,20
2022-07-31T02:27:58.499Z,20
2022-07-31T02:28:58.487Z,20
2022-07-31T02:29:58.477Z,20
2022-07-31T02:30:58.464Z,20
2022-07-31T02:31:58.458Z,20
2022-07-31T02:32:58.439Z,20
2022-07-31T02:33:58.444Z,20
2022-07-31T02:34:58.418Z,20
2022-07-31T02:35:58.415Z,20
2022-07-31T02:36:58.400Z,20
2022-07-31T02:37:58.384Z,20
2022-07-31T02:38:58.372Z,20
2022-07-31T02:39:58.370Z,20
2022-07-31T02:40:58.373Z,20
2022-07-31T02:41:58.349Z,20
2022-07-31T02:42:58.330Z,20
2022-07-31T02:43:58.344Z,20
2022-07-31T02:44:58.343Z,20
2022-07-31T02:45:58.304Z,20
2022-07-31T02:46:58.294Z,20
2022-07-31T02:47:58.280Z,20
2022-07-31T02:48:58.268Z,20
2022-07-31T02:49:58.260Z,20
2022-07-31T02:50:58.252Z,20
2022-07-31T02:51:58.238Z,20
2022-07-31T02:52:58.223Z,20
2022-07-31T02:53:58.217Z,20
2022-07-31T02:54:58.219Z,20
2022-07-31T02:55:58.199Z,20
2022-07-31T02:56:58.181Z,20
2022-07-31T02:57:58.191Z,20
2022-07-31T02:58:58.165Z,20
2022-07-31T02:59:58.151Z,20
2022-07-31T03:00:58.145Z,20
2022-07-31T03:01:58.131Z,24
2022-07-31T03:02:58.133Z,20
2022-07-31T03:03:58.109Z,20
2022-07-31T03:04:58.095Z,20
2022-07-31T03:05:58.096Z,24
2022-07-31T03:06:58.103Z,24
2022-07-31T03:07:58.071Z,24
2022-07-31T03:08:58.062Z,24
2022-07-31T03:09:58.038Z,20
2022-07-31T03:10:58.040Z,20
2022-07-31T03:11:58.033Z,24
2022-07-31T03:12:58.009Z,24
2022-07-31T03:13:57.997Z,24
2022-07-31T03:14:58.057Z,24
2022-07-31T03:15:57.975Z,20
2022-07-31T03:16:57.970Z,20
2022-07-31T03:17:57.958Z,20
2022-07-31T03:18:57.949Z,24
2022-07-31T03:19:57.931Z,24
2022-07-31T03:20:57.926Z,24
2022-07-31T03:21:57.940Z,24
2022-07-31T03:22:57.910Z,24
2022-07-31T03:23:58.880Z,28
2022-07-31T03:24:57.919Z,28
2022-07-31T03:25:57.881Z,32
2022-07-31T03:26:57.904Z,32
2022-07-31T03:27:57.854Z,40
2022-07-31T03:28:57.845Z,40
2022-07-31T03:29:57.831Z,44
2022-07-31T03:30:57.831Z,52
2022-07-31T03:31:57.805Z,56
2022-07-31T03:32:57.794Z,64
2022-07-31T03:33:57.796Z,68
2022-07-31T03:34:57.777Z,76
2022-07-31T03:35:57.769Z,80
2022-07-31T03:36:57.768Z,88
2022-07-31T03:37:57.744Z,96
2022-07-31T03:38:57.738Z,100
2022-07-31T03:39:57.722Z,108
2022-07-31T03:40:57.718Z,116
2022-07-31T03:41:57.704Z,120
2022-07-31T03:42:57.687Z,128
2022-07-31T03:43:57.677Z,136
2022-07-31T03:44:57.679Z,148
2022-07-31T03:45:57.657Z,140
2022-07-31T03:46:57.647Z,148
2022-07-31T03:47:57.656Z,156
2022-07-31T03:48:57.626Z,168
2022-07-31T03:49:57.615Z,172
2022-07-31T03:50:57.602Z,184
2022-07-31T03:51:57.599Z,192
2022-07-31T03:52:57.583Z,204
2022-07-31T03:53:57.572Z,216
2022-07-31T03:54:57.577Z,228
2022-07-31T03:55:57.550Z,236
2022-07-31T03:56:57.554Z,248
2022-07-31T03:57:57.536Z,264
2022-07-31T03:58:57.520Z,280
2022-07-31T03:59:57.507Z,300
2022-07-31T04:00:57.508Z,316
2022-07-31T04:01:57.498Z,340
2022-07-31T04:02:57.479Z,360
2022-07-31T04:03:57.476Z,384
2022-07-31T04:04:57.475Z,408
2022-07-31T04:05:57.441Z,436
2022-07-31T04:06:57.438Z,452
2022-07-31T04:07:57.433Z,464
2022-07-31T04:08:57.420Z,480
2022-07-31T04:09:57.399Z,484
2022-07-31T04:10:57.397Z,492
2022-07-31T04:11:57.408Z,504
2022-07-31T04:12:57.366Z,504
2022-07-31T04:13:57.359Z,504
2022-07-31T04:14:57.355Z,500
2022-07-31T04:15:57.335Z,504
2022-07-31T04:16:57.333Z,524
2022-07-31T04:17:57.321Z,540
2022-07-31T04:18:57.310Z,552
2022-07-31T04:19:57.296Z,560
2022-07-31T04:20:57.284Z,560
2022-07-31T04:21:57.287Z,560
2022-07-31T04:22:57.280Z,556
2022-07-31T04:23:57.254Z,556
2022-07-31T04:24:57.248Z,560
2022-07-31T04:25:57.230Z,572
2022-07-31T04:26:57.241Z,588
2022-07-31T04:27:57.212Z,604
2022-07-31T04:28:57.207Z,624
2022-07-31T04:29:57.186Z,632
2022-07-31T04:30:57.181Z,632
2022-07-31T04:31:57.882Z,632
2022-07-31T04:32:57.158Z,632
2022-07-31T04:33:57.151Z,624
2022-07-31T04:34:57.142Z,608
2022-07-31T04:35:57.125Z,592
2022-07-31T04:36:57.121Z,584
2022-07-31T04:37:57.114Z,580
2022-07-31T04:38:57.093Z,580
2022-07-31T04:39:57.088Z,596
2022-07-31T04:40:57.073Z,628
2022-07-31T04:41:57.060Z,664
2022-07-31T04:42:57.050Z,700
2022-07-31T04:43:57.063Z,728
2022-07-31T04:44:58.152Z,752
2022-07-31T04:45:57.021Z,792
2022-07-31T04:46:57.009Z,836
2022-07-31T04:47:56.999Z,884
2022-07-31T04:48:56.987Z,936
2022-07-31T04:49:56.971Z,976
2022-07-31T04:50:56.971Z,1016
2022-07-31T04:51:56.971Z,1056
2022-07-31T04:52:56.946Z,1108
2022-07-31T04:53:56.932Z,1164
2022-07-31T04:54:56.987Z,1212
2022-07-31T04:55:56.917Z,1260
2022-07-31T04:56:56.939Z,1324
2022-07-31T04:57:56.901Z,1392
2022-07-31T04:58:56.876Z,1460
2022-07-31T04:59:56.878Z,1556
2022-07-31T05:00:56.850Z,1664
2022-07-31T05:01:56.845Z,1764
2022-07-31T05:02:56.841Z,1864
2022-07-31T05:03:56.824Z,1948
2022-07-31T05:04:56.811Z,2056
2022-07-31T05:05:56.801Z,2124
2022-07-31T05:06:56.793Z,2200
2022-07-31T05:07:56.781Z,2256
2022-07-31T05:08:56.782Z,2308
2022-07-31T05:09:56.761Z,2360
2022-07-31T05:10:56.757Z,2436
2022-07-31T05:11:56.734Z,2500
2022-07-31T05:12:56.726Z,2508
2022-07-31T05:13:56.714Z,2480
2022-07-31T05:14:56.699Z,2424
2022-07-31T05:15:56.694Z,2368
2022-07-31T05:16:56.704Z,2424
2022-07-31T05:17:56.685Z,2312
2022-07-31T05:18:56.660Z,2288
2022-07-31T05:19:56.651Z,2288
2022-07-31T05:20:56.637Z,2320
2022-07-31T05:21:57.455Z,2252
2022-07-31T05:22:56.631Z,2180
2022-07-31T05:23:56.611Z,2160
2022-07-31T05:24:56.602Z,2172
2022-07-31T05:25:56.596Z,2184
2022-07-31T05:26:56.575Z,2204
2022-07-31T05:27:56.583Z,2228
2022-07-31T05:28:56.558Z,2260
2022-07-31T05:29:56.539Z,2280
2022-07-31T05:30:56.538Z,2316
2022-07-31T05:31:56.523Z,2308
2022-07-31T05:32:56.516Z,2312
2022-07-31T05:33:56.500Z,2324
2022-07-31T05:34:56.488Z,2336
2022-07-31T05:35:56.484Z,2336
2022-07-31T05:36:56.475Z,2328
2022-07-31T05:37:56.475Z,2320
2022-07-31T05:38:56.447Z,2304
2022-07-31T05:39:56.449Z,2296
2022-07-31T05:40:56.422Z,2304
2022-07-31T05:41:56.408Z,2324
2022-07-31T05:42:56.417Z,2340
2022-07-31T05:43:56.403Z,2356
2022-07-31T05:44:56.381Z,2384
2022-07-31T05:45:56.374Z,2416
2022-07-31T05:47:56.354Z,2516
2022-07-31T05:48:56.348Z,2580
2022-07-31T05:49:56.331Z,2636
2022-07-31T05:50:56.316Z,2708
2022-07-31T05:51:56.316Z,2788
2022-07-31T05:52:56.296Z,2852
2022-07-31T05:53:56.293Z,2912
2022-07-31T05:54:56.267Z,2952
2022-07-31T05:55:56.264Z,2976
2022-07-31T05:56:56.253Z,2968
2022-07-31T05:57:56.247Z,2976
2022-07-31T05:58:56.235Z,2988
2022-07-31T05:59:56.219Z,2992
2022-07-31T06:00:56.202Z,3028
2022-07-31T06:01:56.193Z,3052
2022-07-31T06:02:56.192Z,3056
2022-07-31T06:03:56.169Z,3044
2022-07-31T06:04:56.181Z,3028
2022-07-31T06:05:56.159Z,3004
2022-07-31T06:06:56.147Z,3012
2022-07-31T06:07:56.127Z,3028
2022-07-31T06:08:56.126Z,3052
2022-07-31T06:09:56.109Z,3088
2022-07-31T06:10:56.103Z,3152
2022-07-31T06:11:56.086Z,3208
2022-07-31T06:12:56.094Z,3264
2022-07-31T06:13:56.070Z,3304
2022-07-31T06:14:56.065Z,3348
2022-07-31T06:15:56.045Z,3440
2022-07-31T06:16:56.045Z,3568
2022-07-31T06:17:56.023Z,3704
2022-07-31T06:18:56.009Z,3824
2022-07-31T06:19:55.997Z,3964
2022-07-31T06:20:56.006Z,4004
2022-07-31T06:21:55.980Z,3972
2022-07-31T06:22:55.971Z,3916
2022-07-31T06:23:55.969Z,3932
2022-07-31T06:24:55.951Z,4112
2022-07-31T06:25:55.939Z,4464
2022-07-31T06:26:55.935Z,5004
2022-07-31T06:27:55.912Z,5516
2022-07-31T06:28:55.899Z,5868
2022-07-31T06:29:55.897Z,6324
2022-07-31T06:30:55.888Z,6780
2022-07-31T06:31:55.875Z,8120
2022-07-31T06:32:55.857Z,7368
2022-07-31T06:33:55.860Z,8048
2022-07-31T06:34:55.852Z,8404
2022-07-31T06:35:55.827Z,9208
2022-07-31T06:36:55.821Z,9724
2022-07-31T06:37:55.811Z,9636
2022-07-31T06:38:55.821Z,9536
2022-07-31T06:39:55.784Z,8864
2022-07-31T06:40:55.774Z,9536
2022-07-31T06:41:55.763Z,8600
2022-07-31T06:42:55.757Z,8516
2022-07-31T06:43:55.750Z,7308
2022-07-31T06:44:55.735Z,7084
2022-07-31T06:45:55.721Z,6896
2022-07-31T06:46:55.717Z,6696
2022-07-31T06:47:55.707Z,6484
2022-07-31T06:48:55.688Z,6440
2022-07-31T06:49:55.699Z,6496
2022-07-31T06:50:55.670Z,6376
2022-07-31T06:51:55.653Z,6232
2022-07-31T06:52:55.654Z,6120
2022-07-31T06:53:55.640Z,6052
2022-07-31T06:54:55.631Z,5944
2022-07-31T06:55:55.616Z,5884
2022-07-31T06:56:55.605Z,5932
2022-07-31T06:57:55.594Z,5840
2022-07-31T06:58:55.583Z,5708
2022-07-31T06:59:55.589Z,5520
2022-07-31T07:00:55.568Z,5360
2022-07-31T07:01:55.561Z,5236
2022-07-31T07:02:55.541Z,5132
2022-07-31T07:03:55.545Z,5016
2022-07-31T07:04:55.518Z,4904
2022-07-31T07:05:55.504Z,4824
2022-07-31T07:06:55.500Z,4732
2022-07-31T07:07:55.481Z,4628
2022-07-31T07:08:55.475Z,4508
2022-07-31T07:09:55.469Z,4364
2022-07-31T07:10:55.476Z,4236
2022-07-31T07:11:55.440Z,4184
2022-07-31T07:12:55.444Z,4180
2022-07-31T07:13:55.430Z,4200
2022-07-31T07:14:55.415Z,4172
2022-07-31T07:15:55.408Z,4132
2022-07-31T07:16:55.392Z,4108
2022-07-31T07:17:55.380Z,4148
2022-07-31T07:18:55.371Z,4160
2022-07-31T07:19:55.372Z,4204
2022-07-31T07:20:55.360Z,4224
2022-07-31T07:21:55.339Z,4240
2022-07-31T07:22:55.384Z,4188
2022-07-31T07:23:55.317Z,4144
2022-07-31T07:24:55.312Z,4108
2022-07-31T07:25:55.301Z,4044
2022-07-31T07:26:55.289Z,3996
2022-07-31T07:27:55.274Z,3972
2022-07-31T07:28:55.277Z,3968
2022-07-31T07:29:55.261Z,4068
2022-07-31T07:30:55.241Z,4176
2022-07-31T07:31:55.232Z,4268
2022-07-31T07:32:55.223Z,4344
2022-07-31T07:33:55.227Z,4376
2022-07-31T07:34:55.204Z,4416
2022-07-31T07:35:55.208Z,4508
2022-07-31T07:36:55.178Z,4640
2022-07-31T07:37:55.174Z,4736
2022-07-31T07:38:55.187Z,4776
2022-07-31T07:39:55.146Z,4804
2022-07-31T07:40:55.136Z,4860
2022-07-31T07:41:55.128Z,5008
2022-07-31T07:42:55.121Z,5196
2022-07-31T07:43:55.110Z,5428
2022-07-31T07:44:55.100Z,5616
2022-07-31T07:45:55.098Z,5768
2022-07-31T07:46:55.075Z,5820
2022-07-31T07:47:55.066Z,5856
2022-07-31T07:48:55.059Z,5852
2022-07-31T07:49:55.036Z,5812
2022-07-31T07:50:55.040Z,5756
2022-07-31T07:51:55.023Z,5720
2022-07-31T07:52:55.009Z,5788
2022-07-31T07:53:55.004Z,5888
2022-07-31T07:54:54.995Z,6032
2022-07-31T07:55:54.986Z,6184
2022-07-31T07:56:54.963Z,6304
2022-07-31T07:57:54.964Z,6380
2022-07-31T07:58:54.945Z,6432
2022-07-31T07:59:54.939Z,6484
2022-07-31T08:00:54.921Z,6512
2022-07-31T08:01:54.931Z,6424
2022-07-31T08:02:54.902Z,6300
2022-07-31T08:03:54.890Z,6264
2022-07-31T08:04:54.879Z,6232
2022-07-31T08:05:54.893Z,6288
2022-07-31T08:06:54.864Z,6396
2022-07-31T08:07:54.840Z,6532
2022-07-31T08:08:54.833Z,6720
2022-07-31T08:09:54.819Z,6940
2022-07-31T08:10:54.808Z,7164
2022-07-31T08:11:54.797Z,7324
2022-07-31T08:12:54.807Z,7448
2022-07-31T08:13:54.785Z,7500
2022-07-31T08:14:54.770Z,7476
2022-07-31T08:15:54.783Z,7516
2022-07-31T08:16:54.794Z,7476
2022-07-31T08:17:54.740Z,7352
2022-07-31T08:18:54.741Z,7308
2022-07-31T08:19:54.730Z,7464
2022-07-31T08:20:54.724Z,7736
2022-07-31T08:21:54.688Z,7980
2022-07-31T08:22:54.681Z,8260
2022-07-31T08:23:54.672Z,8664
2022-07-31T08:24:54.660Z,9100
2022-07-31T08:25:54.643Z,9356
2022-07-31T08:26:54.636Z,9600
2022-07-31T08:27:54.624Z,9828
2022-07-31T08:28:54.619Z,10160
2022-07-31T08:29:54.599Z,10504
2022-07-31T08:30:54.602Z,10832
2022-07-31T08:31:54.580Z,10996
2022-07-31T08:32:54.572Z,11052
2022-07-31T08:33:54.575Z,11140
2022-07-31T08:34:54.558Z,11360
2022-07-31T08:35:54.555Z,11632
2022-07-31T08:36:54.526Z,12340
2022-07-31T08:37:54.520Z,12528
2022-07-31T08:38:54.501Z,12568
2022-07-31T08:39:54.515Z,12716
2022-07-31T08:40:54.501Z,12920
2022-07-31T08:41:54.473Z,13872
2022-07-31T08:42:54.474Z,14604
2022-07-31T08:43:54.460Z,17120
2022-07-31T08:44:54.443Z,16416
2022-07-31T08:45:54.442Z,20928
2022-07-31T08:46:54.430Z,15888
2022-07-31T08:47:54.415Z,15132
2022-07-31T08:48:54.428Z,15768
2022-07-31T08:49:54.389Z,15092
2022-07-31T08:50:54.375Z,17984
2022-07-31T08:51:54.365Z,16108
2022-07-31T08:52:54.355Z,16152
2022-07-31T08:53:54.343Z,14784
2022-07-31T08:54:54.344Z,15164
2022-07-31T08:55:54.324Z,14192
2022-07-31T08:56:54.312Z,14856
2022-07-31T08:57:54.309Z,17664
2022-07-31T08:58:54.305Z,19136
2022-07-31T08:59:54.281Z,19808
2022-07-31T09:00:54.278Z,19136
2022-07-31T09:01:54.275Z,18432
2022-07-31T09:02:54.279Z,20000
2022-07-31T09:03:54.237Z,20480
2022-07-31T09:04:54.224Z,20832
2022-07-31T09:05:54.221Z,21536
2022-07-31T09:06:54.220Z,20288
2022-07-31T09:07:54.200Z,17920
2022-07-31T09:08:54.196Z,17792
2022-07-31T09:09:54.181Z,15952
2022-07-31T09:10:54.170Z,13796
2022-07-31T09:11:54.166Z,13092
2022-07-31T09:12:54.150Z,12668
2022-07-31T09:13:54.139Z,12272
2022-07-31T09:14:54.122Z,12236
2022-07-31T09:15:54.118Z,12312
2022-07-31T09:16:54.100Z,12552
2022-07-31T09:17:54.093Z,12860
2022-07-31T09:18:54.082Z,13404
2022-07-31T09:19:54.072Z,14004
2022-07-31T09:20:54.112Z,14696
2022-07-31T09:21:54.064Z,15756
2022-07-31T09:22:54.077Z,15900
2022-07-31T09:23:54.076Z,15140
2022-07-31T09:24:54.041Z,14844
2022-07-31T09:25:54.034Z,14936
2022-07-31T09:26:54.992Z,15804
2022-07-31T09:27:54.023Z,15668
2022-07-31T09:28:53.969Z,15220
2022-07-31T09:29:53.970Z,15196
2022-07-31T09:30:53.949Z,15264
2022-07-31T09:31:53.964Z,15556
2022-07-31T09:32:53.937Z,15700
2022-07-31T09:33:53.924Z,15168
2022-07-31T09:34:53.916Z,14652
2022-07-31T09:35:53.909Z,14316
2022-07-31T09:36:53.893Z,13876
2022-07-31T09:37:53.890Z,13604
2022-07-31T09:38:53.869Z,13560
2022-07-31T09:39:53.859Z,13824
2022-07-31T09:40:53.854Z,14164
2022-07-31T09:41:53.869Z,14548
2022-07-31T09:42:53.825Z,14924
2022-07-31T09:43:53.823Z,15396
2022-07-31T09:44:53.937Z,15780
2022-07-31T09:45:53.796Z,16340
2022-07-31T09:46:53.791Z,17344
2022-07-31T09:47:53.784Z,17920
2022-07-31T09:48:53.769Z,17312
2022-07-31T09:49:53.766Z,16272
2022-07-31T09:50:53.751Z,13700
2022-07-31T09:51:53.732Z,12076
2022-07-31T09:52:53.722Z,10908
2022-07-31T09:53:53.716Z,10120
2022-07-31T09:54:53.700Z,9776
2022-07-31T09:55:53.700Z,9532
2022-07-31T09:56:53.766Z,9228
2022-07-31T09:57:53.730Z,9112
2022-07-31T09:58:53.693Z,9468
2022-07-31T09:59:53.672Z,10136
2022-07-31T10:00:53.636Z,10600
2022-07-31T10:01:53.627Z,10728
2022-07-31T10:02:53.632Z,10636
2022-07-31T10:03:53.603Z,10176
2022-07-31T10:04:53.597Z,9388
2022-07-31T10:05:53.596Z,8932
2022-07-31T10:06:53.600Z,8812
2022-07-31T10:07:53.564Z,8648
2022-07-31T10:08:53.591Z,8508
2022-07-31T10:09:53.540Z,8500
2022-07-31T10:10:53.543Z,8868
2022-07-31T10:11:53.516Z,9220
2022-07-31T10:12:53.507Z,9440
2022-07-31T10:13:53.515Z,9664
2022-07-31T10:14:53.485Z,9940
2022-07-31T10:15:53.482Z,10184
2022-07-31T10:16:53.471Z,10372
2022-07-31T10:17:53.467Z,10568
2022-07-31T10:18:53.446Z,11404
2022-07-31T10:19:53.432Z,12204
2022-07-31T10:20:53.431Z,12896
2022-07-31T10:21:53.425Z,13544
2022-07-31T10:22:53.397Z,14024
2022-07-31T10:23:53.389Z,13600
2022-07-31T10:24:53.384Z,13236
2022-07-31T10:25:53.382Z,13684
2022-07-31T10:26:53.362Z,13344
2022-07-31T10:27:53.352Z,13052
2022-07-31T10:28:53.343Z,11888
2022-07-31T10:29:53.328Z,11252
2022-07-31T10:30:53.323Z,10696
2022-07-31T10:31:53.325Z,10180
2022-07-31T10:32:53.308Z,9704
2022-07-31T10:33:53.294Z,9264
2022-07-31T10:34:53.293Z,9268
2022-07-31T10:35:53.269Z,9424
2022-07-31T10:36:53.255Z,9656
2022-07-31T10:37:53.238Z,10008
2022-07-31T10:38:53.233Z,10592
2022-07-31T10:39:53.220Z,11332
2022-07-31T10:40:53.229Z,12136
2022-07-31T10:41:53.216Z,12936
2022-07-31T10:42:53.194Z,13540
2022-07-31T10:43:53.204Z,13788
2022-07-31T10:44:53.175Z,14216
2022-07-31T10:45:53.174Z,14844
2022-07-31T10:46:53.151Z,15660
2022-07-31T10:47:53.143Z,16352
2022-07-31T10:48:53.133Z,17344
2022-07-31T10:49:53.169Z,18976
2022-07-31T10:50:53.104Z,20000
2022-07-31T10:51:53.094Z,20928
2022-07-31T10:52:53.096Z,26752
2022-07-31T10:53:53.169Z,23584
2022-07-31T10:54:53.067Z,21472
2022-07-31T10:55:53.058Z,20928
2022-07-31T10:56:53.053Z,21696
2022-07-31T10:57:53.036Z,26176
2022-07-31T10:58:53.222Z,28064
2022-07-31T10:59:53.015Z,35584
2022-07-31T11:00:52.997Z,24192
2022-07-31T11:01:52.988Z,24832
2022-07-31T11:02:52.986Z,24608
2022-07-31T11:03:52.994Z,28704
2022-07-31T11:04:52.965Z,30944
2022-07-31T11:05:52.948Z,28640
2022-07-31T11:06:52.942Z,26816
2022-07-31T11:07:52.927Z,27488
2022-07-31T11:08:52.913Z,23072
2022-07-31T11:09:53.474Z,23968
2022-07-31T11:10:52.922Z,26272
2022-07-31T11:11:52.886Z,25920
2022-07-31T11:12:52.876Z,30880
2022-07-31T11:13:52.866Z,26912
2022-07-31T11:14:52.877Z,22560
2022-07-31T11:15:52.840Z,24224
2022-07-31T11:16:52.849Z,37760
2022-07-31T11:17:52.820Z,22464
2022-07-31T11:18:52.805Z,19200
2022-07-31T11:19:52.820Z,17696
2022-07-31T11:20:52.791Z,18240
2022-07-31T11:21:52.791Z,15872
2022-07-31T11:22:52.773Z,15088
2022-07-31T11:23:52.793Z,14288
2022-07-31T11:24:52.743Z,13944
2022-07-31T11:25:52.752Z,14272
2022-07-31T11:26:52.758Z,15136
2022-07-31T11:27:52.768Z,16700
2022-07-31T11:28:52.734Z,18208
2022-07-31T11:29:52.748Z,17504
2022-07-31T11:30:52.677Z,18624
2022-07-31T11:31:52.667Z,18624
2022-07-31T11:32:52.660Z,21920
2022-07-31T11:33:52.654Z,20832
2022-07-31T11:34:52.631Z,16512
2022-07-31T11:35:52.637Z,16420
2022-07-31T11:36:52.702Z,16404
2022-07-31T11:37:52.603Z,15692
2022-07-31T11:38:52.617Z,16368
2022-07-31T11:39:52.588Z,13896
2022-07-31T11:40:52.573Z,14840
2022-07-31T11:41:52.557Z,23392
2022-07-31T11:42:52.594Z,13996
2022-07-31T11:43:52.545Z,12792
2022-07-31T11:44:52.539Z,44320
2022-07-31T11:45:52.535Z,13824
2022-07-31T11:46:52.550Z,15388
2022-07-31T11:47:52.505Z,16868
2022-07-31T11:48:52.496Z,20128
2022-07-31T11:49:52.601Z,27680
2022-07-31T11:50:52.464Z,40064
2022-07-31T11:51:52.457Z,24704
2022-07-31T11:52:52.570Z,25152
2022-07-31T11:53:52.432Z,26048
2022-07-31T11:54:52.428Z,28608
2022-07-31T11:55:52.418Z,35296
2022-07-31T11:56:52.403Z,26720
2022-07-31T11:57:52.393Z,27712
2022-07-31T11:58:52.407Z,18720
2022-07-31T11:59:52.364Z,14888
2022-07-31T12:00:52.385Z,13648
2022-07-31T12:01:52.380Z,13068
2022-07-31T12:02:52.342Z,12800
2022-07-31T12:03:52.324Z,12788
2022-07-31T12:04:52.309Z,13168
2022-07-31T12:05:52.308Z,13880
2022-07-31T12:06:52.301Z,15260
2022-07-31T12:07:52.279Z,17056
2022-07-31T12:08:52.269Z,16268
2022-07-31T12:09:52.266Z,16524
2022-07-31T12:10:52.254Z,17856
2022-07-31T12:11:52.240Z,23072
2022-07-31T12:12:52.223Z,32096
2022-07-31T12:13:52.215Z,25408
2022-07-31T12:14:52.208Z,26368
2022-07-31T12:15:52.193Z,18400
2022-07-31T12:16:52.213Z,14648
2022-07-31T12:17:52.175Z,11832
2022-07-31T12:18:52.167Z,10340
2022-07-31T12:19:52.159Z,9512
2022-07-31T12:20:52.151Z,9140
2022-07-31T12:21:52.128Z,9144
2022-07-31T12:22:52.122Z,9428
2022-07-31T12:23:52.109Z,9996
2022-07-31T12:24:52.133Z,10864
2022-07-31T12:25:52.091Z,11716
2022-07-31T12:26:52.074Z,12688
2022-07-31T12:27:52.065Z,13684
2022-07-31T12:28:52.052Z,14504
2022-07-31T12:29:52.050Z,14448
2022-07-31T12:30:52.029Z,13396
2022-07-31T12:31:52.032Z,12212
2022-07-31T12:32:52.008Z,11284
2022-07-31T12:33:52.035Z,10636
2022-07-31T12:34:52.000Z,10284
2022-07-31T12:35:51.985Z,9912
2022-07-31T12:36:51.973Z,9804
2022-07-31T12:37:51.962Z,9704
2022-07-31T12:38:51.952Z,9432
2022-07-31T12:39:51.938Z,9132
2022-07-31T12:40:51.930Z,9160
2022-07-31T12:41:51.921Z,9336
2022-07-31T12:42:51.915Z,9596
2022-07-31T12:43:51.900Z,9948
2022-07-31T12:44:51.895Z,10320
2022-07-31T12:45:51.887Z,10792
2022-07-31T12:46:51.878Z,11272
2022-07-31T12:47:51.939Z,11572
2022-07-31T12:48:51.876Z,11892
2022-07-31T12:49:51.838Z,12352
2022-07-31T12:50:51.837Z,12800
2022-07-31T12:51:51.822Z,14768
2022-07-31T12:52:51.817Z,15512
2022-07-31T12:53:51.796Z,16112
2022-07-31T12:54:51.785Z,16956
2022-07-31T12:55:51.777Z,18304
2022-07-31T12:56:51.767Z,26112
2022-07-31T12:57:51.761Z,24896
2022-07-31T12:58:51.743Z,19232
2022-07-31T12:59:51.776Z,19616
2022-07-31T13:00:51.722Z,19360
2022-07-31T13:01:51.721Z,17728
2022-07-31T13:02:51.706Z,17472
2022-07-31T13:03:51.697Z,15192
2022-07-31T13:04:51.678Z,15472
2022-07-31T13:05:51.675Z,13596
2022-07-31T13:06:51.659Z,12852
2022-07-31T13:07:51.652Z,13344
2022-07-31T13:08:51.667Z,13448
2022-07-31T13:09:51.639Z,13680
2022-07-31T13:10:51.629Z,13348
2022-07-31T13:11:51.611Z,12500
2022-07-31T13:12:51.618Z,11812
2022-07-31T13:13:51.630Z,11156
2022-07-31T13:14:51.580Z,10596
2022-07-31T13:15:51.567Z,10148
2022-07-31T13:16:51.559Z,9648
2022-07-31T13:17:51.557Z,9052
2022-07-31T13:18:51.547Z,8556
2022-07-31T13:19:51.521Z,8140
2022-07-31T13:20:51.521Z,7868
2022-07-31T13:21:51.513Z,7868
2022-07-31T13:22:51.493Z,7924
2022-07-31T13:23:51.483Z,7944
2022-07-31T13:24:51.477Z,8068
2022-07-31T13:25:51.467Z,8136
2022-07-31T13:26:51.456Z,8152
2022-07-31T13:27:51.446Z,7956